createdAt,value
2023-07-19T00:03:13.218Z,100249.20
2023-07-19T00:08:16.240Z,100236.80
2023-07-19T00:13:19.172Z,100229.20
2023-07-19T00:18:22.223Z,100226.60
2023-07-19T00:23:25.251Z,100222.80
2023-07-19T00:28:28.322Z,100220.20
2023-07-19T00:33:32.214Z,100215.60
2023-07-19T00:38:35.181Z,100201.20
2023-07-19T00:43:38.135Z,100192.80
2023-07-19T00:48:43.066Z,100185.60
2023-07-19T00:53:50.161Z,100186.00
2023-07-19T00:58:54.786Z,100182.00
2023-07-19T01:03:57.820Z,100178.20
2023-07-19T01:09:01.377Z,100177.80
2023-07-19T01:14:04.572Z,100172.60
2023-07-19T01:19:10.912Z,100161.00
2023-07-19T01:24:13.848Z,100160.40
2023-07-19T01:29:16.745Z,100159.00
2023-07-19T01:34:19.655Z,100154.20
2023-07-19T01:39:22.710Z,100151.80
2023-07-19T01:44:25.619Z,100156.20
2023-07-19T01:49:28.534Z,100153.20
2023-07-19T01:54:32.071Z,100149.60
2023-07-19T01:59:35.269Z,100149.60
2023-07-19T02:04:38.299Z,100150.00
2023-07-19T02:09:41.796Z,100149.00
2023-07-19T02:14:44.741Z,100143.80
2023-07-19T02:19:47.827Z,100140.60
2023-07-19T02:24:50.780Z,100145.20
2023-07-19T02:29:53.933Z,100147.60
2023-07-19T02:34:56.914Z,100149.20
2023-07-19T02:39:59.869Z,100145.00
2023-07-19T02:45:02.869Z,100140.00
2023-07-19T02:50:06.777Z,100131.40
2023-07-19T02:55:09.933Z,100134.20
2023-07-19T03:00:13.540Z,100126.20
2023-07-19T03:05:17.440Z,100120.00
2023-07-19T03:10:20.527Z,100121.00
2023-07-19T03:15:23.480Z,100128.60
2023-07-19T03:20:26.901Z,100120.40
2023-07-19T03:25:30.420Z,100120.40
2023-07-19T03:30:33.945Z,100106.80
2023-07-19T03:35:36.905Z,100102.80
2023-07-19T03:40:39.827Z,100100.00
2023-07-19T03:45:43.840Z,100093.00
2023-07-19T03:50:57.524Z,100093.20
2023-07-19T03:56:01.562Z,100084.00
2023-07-19T04:01:04.534Z,100088.40
2023-07-19T04:06:08.216Z,100082.80
2023-07-19T04:11:11.812Z,100088.00
2023-07-19T04:16:14.886Z,100095.00
2023-07-19T04:21:18.072Z,100091.80
2023-07-19T04:26:21.160Z,100086.40
2023-07-19T04:31:24.146Z,100090.20
2023-07-19T04:36:27.014Z,100088.00
2023-07-19T04:41:29.883Z,100084.40
2023-07-19T04:46:32.844Z,100084.00
2023-07-19T04:51:35.972Z,100086.60
2023-07-19T04:56:38.910Z,100088.60
2023-07-19T05:01:41.865Z,100077.80
2023-07-19T05:06:45.366Z,100072.00
2023-07-19T05:11:48.225Z,100072.40
2023-07-19T05:16:51.596Z,100067.40
2023-07-19T05:21:54.633Z,100056.60
2023-07-19T05:26:58.229Z,100046.00
2023-07-19T05:32:01.462Z,100045.40
2023-07-19T05:37:05.522Z,100053.40
2023-07-19T05:42:08.681Z,100051.00
2023-07-19T05:47:11.682Z,100048.20
2023-07-19T05:52:14.784Z,100049.40
2023-07-19T05:57:17.776Z,100045.80
2023-07-19T06:02:20.884Z,100047.00
2023-07-19T06:07:23.836Z,100047.80
2023-07-19T06:12:26.744Z,100060.40
2023-07-19T06:17:29.757Z,100052.40
2023-07-19T06:22:32.734Z,100057.60
2023-07-19T06:27:35.734Z,100053.20
2023-07-19T06:32:39.279Z,100052.40
2023-07-19T06:37:42.280Z,100054.20
2023-07-19T06:42:45.245Z,100052.60
2023-07-19T06:47:48.262Z,100055.20
2023-07-19T06:52:51.620Z,100060.40
2023-07-19T06:57:54.645Z,100066.20
2023-07-19T07:02:57.642Z,100072.20
2023-07-19T07:08:00.694Z,100072.80
2023-07-19T07:13:03.625Z,100066.20
2023-07-19T07:18:06.511Z,100075.00
2023-07-19T07:23:09.669Z,100067.20
2023-07-19T07:28:12.984Z,100069.40
2023-07-19T07:33:16.021Z,100063.20
2023-07-19T07:38:19.288Z,100056.60
2023-07-19T07:43:22.225Z,100050.60
2023-07-19T07:48:25.371Z,100053.40
2023-07-19T07:53:28.334Z,100050.00
2023-07-19T07:58:31.388Z,100049.00
2023-07-19T08:03:34.501Z,100048.60
2023-07-19T08:08:37.623Z,100041.20
2023-07-19T08:13:40.548Z,100039.00
2023-07-19T08:18:53.472Z,100044.20
2023-07-19T08:24:02.693Z,100044.40
2023-07-19T08:29:05.711Z,100034.80
2023-07-19T08:34:08.720Z,100030.80
2023-07-19T08:39:11.698Z,100022.00
2023-07-19T08:44:15.310Z,100021.80
2023-07-19T08:49:19.986Z,100017.80
2023-07-19T08:54:23.088Z,100018.40
2023-07-19T08:59:26.373Z,100020.20
2023-07-19T09:04:29.360Z,100018.60
2023-07-19T09:09:33.461Z,100022.20
2023-07-19T09:14:38.012Z,100016.00
2023-07-19T09:19:44.555Z,100021.60
2023-07-19T09:25:02.650Z,100017.60
2023-07-19T09:30:16.234Z,100009.80
2023-07-19T09:35:28.817Z,99999.80
2023-07-19T09:40:32.849Z,99999.20
2023-07-19T09:45:36.063Z,99993.00
2023-07-19T09:50:43.170Z,99986.40
2023-07-19T09:55:49.647Z,99986.60
2023-07-19T10:00:52.634Z,99987.40
2023-07-19T10:05:58.055Z,99993.20
2023-07-19T10:11:02.300Z,99987.20
2023-07-19T10:16:06.493Z,99981.20
2023-07-19T10:21:11.475Z,99969.80
2023-07-19T10:26:14.475Z,99969.40
2023-07-19T10:31:28.804Z,99967.20
2023-07-19T10:36:32.339Z,99965.00
2023-07-19T10:41:35.926Z,99958.40
2023-07-19T10:46:39.753Z,99962.20
2023-07-19T10:51:59.477Z,99958.40
2023-07-19T10:57:02.870Z,99951.20
2023-07-19T11:02:06.877Z,99941.40
2023-07-19T11:07:12.238Z,99937.60
2023-07-19T11:12:15.824Z,99939.20
2023-07-19T11:17:31.700Z,99942.20
2023-07-19T11:22:35.037Z,99927.80
2023-07-19T11:27:39.500Z,99916.80
2023-07-19T11:32:42.602Z,99910.00
2023-07-19T11:37:45.564Z,99903.00
2023-07-19T11:42:53.624Z,99910.00
2023-07-19T11:48:02.764Z,99909.20
2023-07-19T11:53:07.038Z,99906.20
2023-07-19T11:58:10.063Z,99901.00
2023-07-19T12:03:15.570Z,99897.80
2023-07-19T12:08:18.566Z,99874.60
2023-07-19T12:13:23.655Z,99870.20
2023-07-19T12:18:29.533Z,99861.00
2023-07-19T12:23:34.261Z,99857.40
2023-07-19T12:28:38.051Z,99853.60
2023-07-19T12:33:41.797Z,99853.80
2023-07-19T12:38:44.848Z,99848.80
2023-07-19T12:43:48.145Z,99847.40
2023-07-19T12:48:51.157Z,99837.60
2023-07-19T12:53:54.361Z,99834.60
2023-07-19T12:58:57.374Z,99839.20
2023-07-19T13:04:00.710Z,99832.60
2023-07-19T13:09:07.830Z,99832.00
2023-07-19T13:14:10.960Z,99833.00
2023-07-19T13:19:14.477Z,99827.60
2023-07-19T13:24:17.403Z,99829.20
2023-07-19T13:29:20.495Z,99832.60
2023-07-19T13:34:23.611Z,99830.80
2023-07-19T13:39:28.656Z,99831.80
2023-07-19T13:44:32.476Z,99837.00
2023-07-19T13:49:35.959Z,99843.20
2023-07-19T13:54:40.064Z,99850.80
2023-07-19T13:59:42.992Z,99869.60
2023-07-19T14:04:46.033Z,99899.00
2023-07-19T14:09:49.182Z,99915.00
2023-07-19T14:14:52.372Z,99906.00
2023-07-19T14:19:57.429Z,99908.60
2023-07-19T14:25:00.850Z,99909.80
2023-07-19T14:30:07.407Z,99920.60
2023-07-19T14:35:11.148Z,99935.00
2023-07-19T14:40:15.121Z,99918.80
2023-07-19T14:45:27.626Z,99913.00
2023-07-19T14:50:34.809Z,99907.60
2023-07-19T14:55:37.866Z,99907.00
2023-07-19T15:00:41.033Z,99879.60
2023-07-19T15:05:46.283Z,99872.60
2023-07-19T15:10:50.580Z,99846.40
2023-07-19T15:15:56.113Z,99829.60
2023-07-19T15:21:01.842Z,99840.20
2023-07-19T15:26:12.120Z,99861.40
2023-07-19T15:31:20.371Z,99875.20
2023-07-19T15:36:24.434Z,99889.80
2023-07-19T15:41:27.626Z,99887.00
2023-07-19T15:46:30.749Z,99853.80
2023-07-19T15:51:39.097Z,99839.00
2023-07-19T15:56:42.112Z,99826.80
2023-07-19T16:01:45.374Z,99803.20
2023-07-19T16:06:48.306Z,99799.60
2023-07-19T16:11:51.570Z,99796.20
2023-07-19T16:16:54.505Z,99789.40
2023-07-19T16:21:57.451Z,99786.00
2023-07-19T16:27:00.443Z,99786.20
2023-07-19T16:32:03.611Z,99787.20
2023-07-19T16:37:07.519Z,99782.40
2023-07-19T16:42:10.586Z,99785.00
2023-07-19T16:47:13.570Z,99783.20
2023-07-19T16:52:16.558Z,99784.60
2023-07-19T16:57:19.589Z,99792.60
2023-07-19T17:02:22.529Z,99801.40
2023-07-19T17:07:25.546Z,99802.40
2023-07-19T17:12:28.483Z,99796.60
2023-07-19T17:17:38.924Z,99788.40
2023-07-19T17:22:42.270Z,99793.80
2023-07-19T17:27:46.358Z,99785.40
2023-07-19T17:32:49.726Z,99780.00
2023-07-19T17:37:55.032Z,99785.60
2023-07-19T17:42:58.195Z,99793.00
2023-07-19T17:48:01.296Z,99794.00
2023-07-19T17:53:04.352Z,99782.80
2023-07-19T17:58:07.318Z,99779.40
2023-07-19T18:03:10.612Z,99774.80
2023-07-19T18:08:23.176Z,99780.00
2023-07-19T18:13:28.176Z,99778.60
2023-07-19T18:18:31.224Z,99776.40
2023-07-19T18:23:34.130Z,99780.20
2023-07-19T18:28:37.438Z,99771.40
2023-07-19T18:33:41.038Z,99773.20
2023-07-19T18:38:44.027Z,99775.00
2023-07-19T18:43:46.989Z,99778.00
2023-07-19T18:48:49.988Z,99774.40
2023-07-19T18:53:52.959Z,99780.00
2023-07-19T18:58:56.047Z,99776.80
2023-07-19T19:03:59.226Z,99776.20
2023-07-19T19:09:08.074Z,99778.80
2023-07-19T19:14:11.207Z,99779.00
2023-07-19T19:19:14.169Z,99773.80
2023-07-19T19:24:17.161Z,99773.80
2023-07-19T19:29:20.363Z,99774.80
2023-07-19T19:34:23.662Z,99770.20
2023-07-19T19:39:30.130Z,99766.60
2023-07-19T19:44:33.673Z,99764.20
2023-07-19T19:49:37.063Z,99760.20
2023-07-19T19:54:41.340Z,99774.40
2023-07-19T19:59:45.966Z,99774.80
2023-07-19T20:04:50.077Z,99773.20
2023-07-19T20:10:01.498Z,99772.60
2023-07-19T20:15:17.661Z,99772.20
2023-07-19T20:20:24.022Z,99769.80
2023-07-19T20:25:54.325Z,99766.20
2023-07-19T20:30:55.409Z,99763.20
2023-07-19T20:46:10.006Z,99766.80
2023-07-19T20:51:13.088Z,99763.60
2023-07-19T20:56:25.068Z,99758.40
2023-07-19T21:01:28.602Z,99758.20
2023-07-19T21:06:31.789Z,99752.00
2023-07-19T21:11:34.858Z,99756.00
2023-07-19T21:16:40.541Z,99751.40
2023-07-19T21:21:44.580Z,99751.60
2023-07-19T21:26:47.568Z,99751.80
2023-07-19T21:31:50.643Z,99747.80
2023-07-19T21:36:53.604Z,99748.60
2023-07-19T21:41:56.623Z,99748.20
2023-07-19T21:46:59.559Z,99751.60
2023-07-19T21:52:02.630Z,99757.60
2023-07-19T21:57:06.021Z,99758.80
2023-07-19T22:02:09.208Z,99754.40
2023-07-19T22:07:12.094Z,99743.20
2023-07-19T22:12:15.032Z,99746.00
2023-07-19T22:17:18.008Z,99741.80
2023-07-19T22:22:20.931Z,99746.00
2023-07-19T22:27:23.819Z,99748.20
2023-07-19T22:32:27.127Z,99743.60
2023-07-19T22:37:30.057Z,99739.00
2023-07-19T22:42:32.956Z,99743.60
2023-07-19T22:47:35.872Z,99743.80
2023-07-19T22:52:42.241Z,99740.20
2023-07-19T22:57:45.267Z,99743.80
2023-07-19T23:02:48.357Z,99742.40
2023-07-19T23:07:55.310Z,99742.60
2023-07-19T23:12:58.257Z,99734.20
2023-07-19T23:18:01.266Z,99737.60
2023-07-19T23:23:04.218Z,99730.80
2023-07-19T23:28:07.238Z,99732.60
2023-07-19T23:33:10.178Z,99733.80
2023-07-19T23:38:13.196Z,99724.40
2023-07-19T23:43:18.598Z,99735.00
2023-07-19T23:48:21.537Z,99726.20
2023-07-19T23:53:24.516Z,99724.80
2023-07-19T23:58:27.443Z,99723.60
